Time;durP1;ratioP1;P1;durP2;ratioP2;P2;SDS_P1;SDS_P2;PMS_P1;PMS_P2;Temp;Humidity;BMP_temperature;BMP_pressure;BME280_temperature;BME280_humidity;BME280_pressure;Samples;Min_cycle;Max_cycle;Signal;HPM_P1;HPM_P2
2023/03/08 00:01:40;;;;;;;9.10;4.93;;;;;;;;;;4900014;29;20509;-80
2023/03/08 00:04:06;;;;;;;9.35;4.75;;;;;;;;;;4917053;29;20422;-80
2023/03/08 00:06:32;;;;;;;7.00;3.50;;;;;;;;;;4913335;29;20540;-79
2023/03/08 00:09:00;;;;;;;8.38;3.67;;;;;;;;;;4922767;29;20421;-79
2023/03/08 00:11:26;;;;;;;9.75;3.58;;;;;;;;;;4913519;29;20435;-79
2023/03/08 00:13:54;;;;;;;5.90;3.00;;;;;;;;;;4918342;29;20458;-79
2023/03/08 00:16:20;;;;;;;7.80;3.08;;;;;;;;;;4931756;29;20523;-79
2023/03/08 00:18:46;;;;;;;7.93;3.60;;;;;;;;;;4917933;29;20510;-79
2023/03/08 00:21:17;;;;;;;6.05;3.10;;;;;;;;;;4933196;29;20430;-79
2023/03/08 00:23:43;;;;;;;10.30;2.80;;;;;;;;;;4916800;29;20833;-79
2023/03/08 00:26:10;;;;;;;6.82;2.70;;;;;;;;;;4922609;29;20467;-79
2023/03/08 00:28:36;;;;;;;5.15;2.30;;;;;;;;;;4916325;29;20427;-79
2023/03/08 00:31:12;;;;;;;4.55;2.30;;;;;;;;;;4934930;29;20455;-79
2023/03/08 00:33:38;;;;;;;4.13;2.00;;;;;;;;;;4932691;29;20478;-79
2023/03/08 00:36:06;;;;;;;6.22;2.35;;;;;;;;;;4934075;29;20439;-79
2023/03/08 00:38:34;;;;;;;5.22;2.03;;;;;;;;;;4935100;29;20887;-79
2023/03/08 00:41:00;;;;;;;8.00;2.30;;;;;;;;;;4932430;29;20442;-79
2023/03/08 00:43:27;;;;;;;6.53;2.03;;;;;;;;;;4935013;29;20438;-80
2023/03/08 00:45:53;;;;;;;6.80;2.10;;;;;;;;;;4916188;29;20883;-79
2023/03/08 00:48:19;;;;;;;4.47;1.90;;;;;;;;;;4915535;29;20488;-79
2023/03/08 00:50:45;;;;;;;5.07;1.85;;;;;;;;;;4933236;29;20443;-79
2023/03/08 00:53:11;;;;;;;4.95;1.80;;;;;;;;;;4932606;29;20431;-79
2023/03/08 00:55:37;;;;;;;5.72;1.63;;;;;;;;;;4935765;29;20800;-80
2023/03/08 00:58:03;;;;;;;5.07;2.00;;;;;;;;;;4931143;29;20435;-79
2023/03/08 01:00:30;;;;;;;6.55;2.10;;;;;;;;;;4919149;29;20807;-79
2023/03/08 01:02:57;;;;;;;6.60;2.28;;;;;;;;;;4926276;29;20506;-79
2023/03/08 01:05:23;;;;;;;7.13;3.38;;;;;;;;;;4920032;29;20791;-79
2023/03/08 01:07:49;;;;;;;5.40;1.80;;;;;;;;;;4917766;29;20446;-79
2023/03/08 01:10:15;;;;;;;8.10;2.05;;;;;;;;;;4918380;29;20435;-79
2023/03/08 01:12:41;;;;;;;6.47;1.90;;;;;;;;;;4919719;29;20411;-79
2023/03/08 01:15:08;;;;;;;5.63;1.95;;;;;;;;;;4932015;29;20443;-79
2023/03/08 01:17:34;;;;;;;5.72;3.50;;;;;;;;;;4915132;29;20430;-79
2023/03/08 01:20:00;;;;;;;4.47;2.10;;;;;;;;;;4929928;29;20428;-79
2023/03/08 01:22:26;;;;;;;5.05;1.63;;;;;;;;;;4932650;29;20435;-79
2023/03/08 01:25:10;;;;;;;3.95;1.70;;;;;;;;;;4934038;29;20426;-79
2023/03/08 01:30:34;;;;;;;8.85;4.00;;;;;;;;;;4930812;29;20423;-79
2023/03/08 01:33:09;;;;;;;4.95;1.75;;;;;;;;;;4926348;29;20418;-79
2023/03/08 01:35:37;;;;;;;5.57;1.58;;;;;;;;;;4934407;29;20466;-78
2023/03/08 01:38:22;;;;;;;6.30;1.83;;;;;;;;;;4933758;29;20426;-79
2023/03/08 01:40:48;;;;;;;4.25;1.48;;;;;;;;;;4905601;29;20439;-78
2023/03/08 01:43:41;;;;;;;16.13;4.50;;;;;;;;;;4934469;29;20457;-78
2023/03/08 01:46:22;;;;;;;4.97;1.70;;;;;;;;;;4951238;29;20439;-78
2023/03/08 01:49:03;;;;;;;4.43;1.70;;;;;;;;;;4952923;29;20431;-78
2023/03/08 01:51:33;;;;;;;5.75;1.50;;;;;;;;;;4947979;29;20428;-78
2023/03/08 01:54:02;;;;;;;7.32;1.70;;;;;;;;;;4939362;29;20430;-78
2023/03/08 01:56:28;;;;;;;10.63;3.95;;;;;;;;;;4916045;29;20945;-78
2023/03/08 01:58:54;;;;;;;6.20;1.80;;;;;;;;;;4928115;29;20808;-78
2023/03/08 02:01:20;;;;;;;3.38;1.73;;;;;;;;;;4934087;29;20441;-78
2023/03/08 02:03:46;;;;;;;5.82;1.80;;;;;;;;;;4917256;29;20431;-78
2023/03/08 02:06:13;;;;;;;6.78;1.60;;;;;;;;;;4932474;29;20948;-78
2023/03/08 02:08:41;;;;;;;4.95;1.70;;;;;;;;;;4934055;29;20423;-78
2023/03/08 02:11:07;;;;;;;4.32;1.90;;;;;;;;;;4914866;29;20447;-78
2023/03/08 02:13:33;;;;;;;6.00;1.90;;;;;;;;;;4931724;29;20491;-78
2023/03/08 02:16:00;;;;;;;7.50;1.77;;;;;;;;;;4914231;29;20436;-78
2023/03/08 02:18:26;;;;;;;6.35;1.80;;;;;;;;;;4913920;29;20431;-78
2023/03/08 02:20:52;;;;;;;5.32;1.80;;;;;;;;;;4917311;29;20427;-78
2023/03/08 02:23:19;;;;;;;6.27;1.90;;;;;;;;;;4930044;29;21078;-78
2023/03/08 02:25:56;;;;;;;6.57;1.60;;;;;;;;;;4931970;29;20538;-78
2023/03/08 02:28:24;;;;;;;5.30;1.88;;;;;;;;;;4916818;29;20454;-78
2023/03/08 02:30:50;;;;;;;7.57;1.90;;;;;;;;;;4916014;29;20423;-79
2023/03/08 02:33:17;;;;;;;5.97;3.08;;;;;;;;;;4931683;29;20787;-79
2023/03/08 02:35:43;;;;;;;5.57;1.90;;;;;;;;;;4931183;29;20435;-78
2023/03/08 02:38:10;;;;;;;5.35;1.73;;;;;;;;;;4933015;29;20438;-79
2023/03/08 02:40:37;;;;;;;7.95;2.08;;;;;;;;;;4915651;29;20432;-79
2023/03/08 02:43:03;;;;;;;5.63;1.80;;;;;;;;;;4930091;29;20594;-77
2023/03/08 02:45:29;;;;;;;4.20;1.67;;;;;;;;;;4902887;29;20566;-77
2023/03/08 02:47:56;;;;;;;6.00;1.50;;;;;;;;;;4932231;29;20490;-77
2023/03/08 02:50:22;;;;;;;5.32;1.60;;;;;;;;;;4932810;29;20446;-77
2023/03/08 02:52:48;;;;;;;4.68;1.80;;;;;;;;;;4912143;29;20429;-78
2023/03/08 02:55:14;;;;;;;4.57;1.52;;;;;;;;;;4926246;29;20456;-78
2023/03/08 02:57:40;;;;;;;5.80;1.73;;;;;;;;;;4931142;29;20445;-78
2023/03/08 03:00:06;;;;;;;4.10;1.70;;;;;;;;;;4915184;29;20437;-78
2023/03/08 03:02:33;;;;;;;5.38;1.75;;;;;;;;;;4930781;29;20827;-77
2023/03/08 03:04:59;;;;;;;5.07;1.70;;;;;;;;;;4933311;29;20423;-78
2023/03/08 03:07:25;;;;;;;5.15;1.75;;;;;;;;;;4930893;29;20462;-77
2023/03/08 03:09:51;;;;;;;7.38;3.30;;;;;;;;;;4930675;29;20431;-77
2023/03/08 03:12:17;;;;;;;6.03;1.88;;;;;;;;;;4929750;29;20762;-77
2023/03/08 03:14:43;;;;;;;4.30;1.50;;;;;;;;;;4916648;29;20431;-78
2023/03/08 03:17:09;;;;;;;3.70;1.50;;;;;;;;;;4931371;29;20579;-78
2023/03/08 03:19:36;;;;;;;6.78;1.70;;;;;;;;;;4931577;29;20439;-78
2023/03/08 03:22:03;;;;;;;4.78;1.65;;;;;;;;;;4930738;29;20435;-78
2023/03/08 03:24:29;;;;;;;3.45;1.50;;;;;;;;;;4932586;29;20434;-78
2023/03/08 03:26:55;;;;;;;7.97;2.92;;;;;;;;;;4931164;29;20431;-78
2023/03/08 03:29:21;;;;;;;5.72;1.65;;;;;;;;;;4917430;29;20418;-78
2023/03/08 03:31:47;;;;;;;4.57;2.10;;;;;;;;;;4932040;29;20928;-78
2023/03/08 03:34:13;;;;;;;7.82;2.33;;;;;;;;;;4891928;29;20512;-78
2023/03/08 03:36:39;;;;;;;5.32;1.70;;;;;;;;;;4929860;29;20439;-78
2023/03/08 03:39:06;;;;;;;6.60;1.75;;;;;;;;;;4932400;29;20479;-78
2023/03/08 03:41:32;;;;;;;5.23;1.80;;;;;;;;;;4932315;29;20526;-78
2023/03/08 03:43:58;;;;;;;6.20;2.47;;;;;;;;;;4920313;29;20440;-78
2023/03/08 03:46:24;;;;;;;5.80;1.80;;;;;;;;;;4934124;29;20481;-78
2023/03/08 03:48:50;;;;;;;5.50;1.70;;;;;;;;;;4900959;29;20909;-77
2023/03/08 03:51:17;;;;;;;7.25;1.90;;;;;;;;;;4925661;29;20455;-78
2023/03/08 03:53:43;;;;;;;5.15;2.13;;;;;;;;;;4920469;29;20447;-78
2023/03/08 03:56:14;;;;;;;9.23;1.80;;;;;;;;;;4920266;29;20455;-78
2023/03/08 03:58:40;;;;;;;6.88;2.40;;;;;;;;;;4934513;29;20419;-77
2023/03/08 04:01:07;;;;;;;4.15;1.58;;;;;;;;;;4934683;29;20540;-77
2023/03/08 04:03:33;;;;;;;3.55;1.70;;;;;;;;;;4917724;29;20446;-78
2023/03/08 04:06:07;;;;;;;5.57;1.60;;;;;;;;;;4920643;29;20470;-78
2023/03/08 04:08:33;;;;;;;5.13;1.80;;;;;;;;;;4912712;29;20440;-78
2023/03/08 04:11:00;;;;;;;5.40;1.90;;;;;;;;;;4934470;29;20544;-78
2023/03/08 04:13:26;;;;;;;6.50;3.40;;;;;;;;;;4934173;29;20861;-78
2023/03/08 04:15:52;;;;;;;6.13;1.85;;;;;;;;;;4935845;29;20431;-78
2023/03/08 04:18:18;;;;;;;5.07;1.92;;;;;;;;;;4934963;29;20442;-78
2023/03/08 04:20:45;;;;;;;5.78;1.88;;;;;;;;;;4916914;29;20435;-78
2023/03/08 04:23:11;;;;;;;6.45;2.28;;;;;;;;;;4933277;29;20435;-78
2023/03/08 04:25:37;;;;;;;7.43;1.90;;;;;;;;;;4936564;29;20456;-82
2023/03/08 04:28:04;;;;;;;5.32;2.03;;;;;;;;;;4922339;29;20430;-81
2023/03/08 04:30:30;;;;;;;6.03;2.67;;;;;;;;;;4922406;29;20403;-82
2023/03/08 04:32:56;;;;;;;5.97;2.00;;;;;;;;;;4921503;29;20427;-83
2023/03/08 04:35:22;;;;;;;4.90;1.58;;;;;;;;;;4922486;29;20465;-82
2023/03/08 04:37:48;;;;;;;4.80;1.48;;;;;;;;;;4912047;29;20468;-82
2023/03/08 04:40:14;;;;;;;3.97;1.40;;;;;;;;;;4912197;29;20442;-82
2023/03/08 04:42:40;;;;;;;4.30;1.50;;;;;;;;;;4920467;29;20451;-82
2023/03/08 04:45:07;;;;;;;4.80;1.70;;;;;;;;;;4934891;29;20494;-82
2023/03/08 04:47:33;;;;;;;6.57;2.15;;;;;;;;;;4911495;29;20466;-81
2023/03/08 04:49:59;;;;;;;7.25;2.17;;;;;;;;;;4920177;29;20427;-82
2023/03/08 04:52:25;;;;;;;4.37;1.30;;;;;;;;;;4918687;29;20470;-82
2023/03/08 04:54:51;;;;;;;4.45;1.42;;;;;;;;;;4924822;29;20455;-82
2023/03/08 04:57:17;;;;;;;5.50;1.85;;;;;;;;;;4934717;29;20431;-82
2023/03/08 04:59:44;;;;;;;7.13;1.88;;;;;;;;;;4914471;29;21022;-82
2023/03/08 05:02:10;;;;;;;5.65;2.40;;;;;;;;;;4917218;29;20429;-82
2023/03/08 05:04:36;;;;;;;14.85;7.55;;;;;;;;;;4919322;29;20797;-83
2023/03/08 05:07:02;;;;;;;6.22;2.10;;;;;;;;;;4935806;29;20432;-82
2023/03/08 05:09:28;;;;;;;6.82;1.60;;;;;;;;;;4919528;29;20427;-78
2023/03/08 05:11:54;;;;;;;4.57;1.58;;;;;;;;;;4918544;29;20431;-78
2023/03/08 05:14:20;;;;;;;6.15;1.90;;;;;;;;;;4910957;28;20799;-79
2023/03/08 05:16:46;;;;;;;5.63;1.92;;;;;;;;;;4920483;29;20447;-78
2023/03/08 05:19:12;;;;;;;6.50;1.83;;;;;;;;;;4913868;29;20973;-78
2023/03/08 05:21:38;;;;;;;8.20;1.80;;;;;;;;;;4918456;29;20435;-78
2023/03/08 05:24:05;;;;;;;30.50;4.88;;;;;;;;;;4917472;29;20431;-79
2023/03/08 05:26:31;;;;;;;4.43;1.77;;;;;;;;;;4933682;29;20799;-78
2023/03/08 05:29:01;;;;;;;7.68;1.85;;;;;;;;;;4910872;29;20465;-79
2023/03/08 05:31:27;;;;;;;7.93;2.20;;;;;;;;;;4919422;29;20518;-79
2023/03/08 05:33:53;;;;;;;6.32;1.90;;;;;;;;;;4933862;29;20506;-79
2023/03/08 05:36:19;;;;;;;7.97;2.38;;;;;;;;;;4934114;29;20470;-79
2023/03/08 05:38:46;;;;;;;7.03;2.60;;;;;;;;;;4932764;29;20916;-79
2023/03/08 05:41:14;;;;;;;6.78;3.08;;;;;;;;;;4932953;29;20434;-79
2023/03/08 05:43:40;;;;;;;5.90;2.70;;;;;;;;;;4931158;29;20482;-79
2023/03/08 05:46:07;;;;;;;6.28;2.80;;;;;;;;;;4914327;29;20437;-79
2023/03/08 05:48:34;;;;;;;6.05;3.05;;;;;;;;;;4915165;29;20431;-79
2023/03/08 05:51:07;;;;;;;9.50;3.10;;;;;;;;;;4933790;29;20435;-79
2023/03/08 05:53:34;;;;;;;7.88;3.35;;;;;;;;;;4933197;29;20442;-79
2023/03/08 05:56:08;;;;;;;7.05;3.20;;;;;;;;;;4934379;29;20461;-79
2023/03/08 05:58:35;;;;;;;9.75;4.85;;;;;;;;;;4931874;29;20958;-78
2023/03/08 06:01:07;;;;;;;6.07;3.50;;;;;;;;;;4932280;29;20428;-78
2023/03/08 06:03:34;;;;;;;8.38;4.00;;;;;;;;;;4931998;29;20435;-79
2023/03/08 06:06:00;;;;;;;7.20;4.07;;;;;;;;;;4934760;29;20471;-78
2023/03/08 06:08:26;;;;;;;8.55;3.47;;;;;;;;;;4932619;29;20459;-79
2023/03/08 06:10:52;;;;;;;9.35;3.90;;;;;;;;;;4919281;29;20788;-79
2023/03/08 06:13:20;;;;;;;13.80;6.93;;;;;;;;;;4928775;29;20437;-77
2023/03/08 06:15:47;;;;;;;13.25;7.00;;;;;;;;;;4927127;29;20448;-78
2023/03/08 06:18:13;;;;;;;15.32;6.60;;;;;;;;;;4916014;29;20437;-78
2023/03/08 06:20:39;;;;;;;12.98;7.00;;;;;;;;;;4907289;29;20439;-77
2023/03/08 06:23:05;;;;;;;11.20;5.27;;;;;;;;;;4913134;29;20455;-76
2023/03/08 06:25:31;;;;;;;15.27;8.40;;;;;;;;;;4928270;29;20516;-76
2023/03/08 06:27:57;;;;;;;14.20;8.52;;;;;;;;;;4927643;29;20431;-76
2023/03/08 06:30:23;;;;;;;15.77;9.18;;;;;;;;;;4926670;29;20454;-76
2023/03/08 06:32:49;;;;;;;35.35;9.80;;;;;;;;;;4915815;29;20447;-78
2023/03/08 06:35:15;;;;;;;18.35;9.45;;;;;;;;;;4903812;29;20431;-78
2023/03/08 06:37:41;;;;;;;13.30;9.70;;;;;;;;;;4916573;29;20495;-78
2023/03/08 06:40:08;;;;;;;15.52;9.10;;;;;;;;;;4915860;29;20429;-76
2023/03/08 06:42:34;;;;;;;14.65;9.88;;;;;;;;;;4931103;29;20431;-77
2023/03/08 06:45:00;;;;;;;16.15;10.32;;;;;;;;;;4931060;29;20428;-77
2023/03/08 06:47:29;;;;;;;20.17;12.30;;;;;;;;;;4915723;29;20549;-77
2023/03/08 06:49:55;;;;;;;21.15;14.13;;;;;;;;;;4948519;29;20435;-77
2023/03/08 06:52:21;;;;;;;20.35;14.75;;;;;;;;;;4932060;29;20506;-77
2023/03/08 06:54:47;;;;;;;23.30;15.25;;;;;;;;;;4924576;29;20419;-77
2023/03/08 06:57:14;;;;;;;23.42;15.73;;;;;;;;;;4911125;29;21032;-77
2023/03/08 06:59:40;;;;;;;25.83;16.63;;;;;;;;;;4915097;29;20877;-77
2023/03/08 07:02:06;;;;;;;130.15;25.77;;;;;;;;;;4912119;29;20486;-78
2023/03/08 07:04:32;;;;;;;24.20;16.80;;;;;;;;;;4899361;29;20461;-77
2023/03/08 07:06:58;;;;;;;21.92;16.90;;;;;;;;;;4927464;29;20427;-77
2023/03/08 07:09:24;;;;;;;23.75;16.85;;;;;;;;;;4930605;29;20419;-77
2023/03/08 07:11:50;;;;;;;26.00;17.08;;;;;;;;;;4928326;29;20463;-76
2023/03/08 07:14:16;;;;;;;89.05;22.27;;;;;;;;;;4912878;29;20916;-76
2023/03/08 07:16:42;;;;;;;348.30;42.88;;;;;;;;;;4928577;29;20825;-76
2023/03/08 07:19:08;;;;;;;23.77;17.90;;;;;;;;;;4916287;29;20490;-77
2023/03/08 07:21:36;;;;;;;47.35;21.52;;;;;;;;;;4913576;29;20652;-77
2023/03/08 07:24:02;;;;;;;23.02;17.70;;;;;;;;;;4927113;29;20837;-77
2023/03/08 07:26:30;;;;;;;26.65;19.92;;;;;;;;;;4913643;29;21034;-76
2023/03/08 07:28:56;;;;;;;27.60;19.23;;;;;;;;;;4912317;29;20525;-77
2023/03/08 07:31:23;;;;;;;124.53;26.83;;;;;;;;;;4932501;29;21070;-77
2023/03/08 07:33:49;;;;;;;26.52;18.92;;;;;;;;;;4928503;29;20434;-76
2023/03/08 07:36:15;;;;;;;24.15;18.00;;;;;;;;;;4912181;29;20438;-77
2023/03/08 07:38:41;;;;;;;23.45;18.48;;;;;;;;;;4927596;29;20499;-77
2023/03/08 07:41:07;;;;;;;24.60;17.77;;;;;;;;;;4929214;29;20431;-77
2023/03/08 07:43:33;;;;;;;22.33;17.02;;;;;;;;;;4910428;29;20427;-77
2023/03/08 07:46:01;;;;;;;25.50;17.30;;;;;;;;;;4924074;28;20553;-77
2023/03/08 07:48:27;;;;;;;25.80;16.98;;;;;;;;;;4923601;29;20430;-77
2023/03/08 07:50:53;;;;;;;21.75;15.52;;;;;;;;;;4926296;29;20814;-77
2023/03/08 07:53:19;;;;;;;20.42;15.60;;;;;;;;;;4914676;29;20447;-77
2023/03/08 07:55:45;;;;;;;21.65;15.25;;;;;;;;;;4927835;29;20439;-77
2023/03/08 07:58:11;;;;;;;19.67;14.95;;;;;;;;;;4926132;29;20435;-77
2023/03/08 08:00:37;;;;;;;21.20;15.20;;;;;;;;;;4912311;29;20837;-78
2023/03/08 08:03:03;;;;;;;23.77;15.30;;;;;;;;;;4925818;29;21750;-78
2023/03/08 08:05:29;;;;;;;19.50;14.85;;;;;;;;;;4925346;29;20431;-79
2023/03/08 08:07:55;;;;;;;17.53;14.80;;;;;;;;;;4924087;29;20937;-78
2023/03/08 08:10:21;;;;;;;19.10;15.10;;;;;;;;;;4927312;29;20431;-79
2023/03/08 08:12:48;;;;;;;19.55;15.02;;;;;;;;;;4928790;29;20440;-79
2023/03/08 08:15:15;;;;;;;18.27;14.75;;;;;;;;;;4929407;29;20946;-79
2023/03/08 08:17:41;;;;;;;21.45;15.15;;;;;;;;;;4922149;29;20429;-79
2023/03/08 08:20:07;;;;;;;17.75;14.45;;;;;;;;;;4911540;29;20469;-79
2023/03/08 08:22:34;;;;;;;30.60;16.10;;;;;;;;;;4897541;29;20514;-77
2023/03/08 08:25:01;;;;;;;17.40;13.68;;;;;;;;;;4908798;29;20777;-79
2023/03/08 08:27:27;;;;;;;15.98;12.35;;;;;;;;;;4912200;29;20804;-78
2023/03/08 08:29:53;;;;;;;18.30;13.10;;;;;;;;;;4910524;29;20478;-79
2023/03/08 08:32:19;;;;;;;21.10;14.20;;;;;;;;;;4934111;29;20478;-79
2023/03/08 08:34:45;;;;;;;18.25;13.57;;;;;;;;;;4932215;29;20423;-78
2023/03/08 08:37:11;;;;;;;15.30;12.33;;;;;;;;;;4918448;29;20431;-78
2023/03/08 08:39:37;;;;;;;21.98;13.40;;;;;;;;;;4919651;29;20436;-78
2023/03/08 08:42:03;;;;;;;15.40;11.38;;;;;;;;;;4933984;29;20427;-77
2023/03/08 08:44:29;;;;;;;17.95;13.13;;;;;;;;;;4912870;29;20858;-77
2023/03/08 08:46:55;;;;;;;18.27;12.57;;;;;;;;;;4929173;29;20869;-77
2023/03/08 08:49:21;;;;;;;15.65;12.82;;;;;;;;;;4902392;29;20434;-76
2023/03/08 08:51:47;;;;;;;15.15;12.45;;;;;;;;;;4917264;29;20464;-77
2023/03/08 08:54:13;;;;;;;17.33;11.95;;;;;;;;;;4916467;29;20422;-77
2023/03/08 08:56:41;;;;;;;16.20;12.00;;;;;;;;;;4927551;29;20427;-78
2023/03/08 08:59:08;;;;;;;15.30;12.23;;;;;;;;;;4928371;29;20442;-78
2023/03/08 09:01:35;;;;;;;29.10;14.00;;;;;;;;;;4927416;29;20444;-78
2023/03/08 09:04:02;;;;;;;14.20;10.35;;;;;;;;;;4927909;29;20441;-78
2023/03/08 09:06:29;;;;;;;12.93;10.70;;;;;;;;;;4931181;29;20443;-79
2023/03/08 09:08:57;;;;;;;13.20;10.23;;;;;;;;;;4932104;29;20478;-79
2023/03/08 09:11:23;;;;;;;12.63;10.02;;;;;;;;;;4928216;29;20427;-80
2023/03/08 09:13:50;;;;;;;16.85;12.23;;;;;;;;;;4932684;29;20422;-79
2023/03/08 09:16:21;;;;;;;14.17;10.60;;;;;;;;;;4930219;29;20505;-79
2023/03/08 09:18:47;;;;;;;13.40;8.60;;;;;;;;;;4925976;29;20435;-77
2023/03/08 09:21:13;;;;;;;11.07;8.53;;;;;;;;;;4932602;29;20449;-80
2023/03/08 09:23:40;;;;;;;10.40;8.60;;;;;;;;;;4929397;29;20520;-78
2023/03/08 09:26:06;;;;;;;10.60;9.18;;;;;;;;;;4931321;29;20439;-78
2023/03/08 09:28:32;;;;;;;10.63;8.90;;;;;;;;;;4895992;29;20425;-78
2023/03/08 09:30:58;;;;;;;12.00;8.18;;;;;;;;;;4925707;29;20566;-78
2023/03/08 09:33:24;;;;;;;11.20;6.97;;;;;;;;;;4932561;29;20558;-78
2023/03/08 09:35:57;;;;;;;9.13;6.03;;;;;;;;;;4934398;29;20841;-78
2023/03/08 09:38:24;;;;;;;9.35;5.65;;;;;;;;;;4917107;29;20895;-78
2023/03/08 09:40:59;;;;;;;47.53;11.02;;;;;;;;;;4922541;29;20437;-77
2023/03/08 09:43:32;;;;;;;10.23;6.90;;;;;;;;;;4927642;29;20475;-77
2023/03/08 09:45:58;;;;;;;11.73;7.60;;;;;;;;;;4934942;29;20442;-77
2023/03/08 09:48:29;;;;;;;9.23;6.72;;;;;;;;;;4923798;29;20439;-77
2023/03/08 09:50:58;;;;;;;302.35;33.08;;;;;;;;;;4911844;29;20475;-77
2023/03/08 09:53:45;;;;;;;21.45;8.02;;;;;;;;;;4940762;29;20935;-77
2023/03/08 09:56:19;;;;;;;7.63;5.20;;;;;;;;;;4929404;29;20431;-76
2023/03/08 09:58:45;;;;;;;7.68;4.25;;;;;;;;;;4926454;29;20967;-77
2023/03/08 10:01:24;;;;;;;5.10;3.20;;;;;;;;;;4928851;29;20510;-77
2023/03/08 10:03:59;;;;;;;6.30;4.05;;;;;;;;;;4907524;29;20431;-77
2023/03/08 10:06:33;;;;;;;6.68;3.92;;;;;;;;;;4927250;29;20451;-77
2023/03/08 10:09:03;;;;;;;6.55;4.20;;;;;;;;;;4915435;29;20523;-77
2023/03/08 10:11:40;;;;;;;6.25;4.30;;;;;;;;;;4928523;29;20483;-77
2023/03/08 10:14:17;;;;;;;6.50;3.97;;;;;;;;;;4926998;29;20455;-76
2023/03/08 10:16:49;;;;;;;4.45;2.95;;;;;;;;;;4914883;29;20433;-77
2023/03/08 10:19:21;;;;;;;6.78;3.40;;;;;;;;;;4926884;29;20438;-77
2023/03/08 10:21:48;;;;;;;5.65;3.13;;;;;;;;;;4930186;29;20439;-77
2023/03/08 10:24:17;;;;;;;6.35;3.35;;;;;;;;;;4930119;29;20510;-77
2023/03/08 10:26:43;;;;;;;4.63;2.60;;;;;;;;;;4915879;29;20474;-77
2023/03/08 10:29:13;;;;;;;5.00;2.80;;;;;;;;;;4929045;29;20431;-77
2023/03/08 10:31:42;;;;;;;5.18;2.38;;;;;;;;;;4929608;29;20431;-77
2023/03/08 10:34:16;;;;;;;3.70;1.50;;;;;;;;;;4910383;29;20486;-77
2023/03/08 10:36:50;;;;;;;3.47;0.98;;;;;;;;;;4928386;29;20570;-77
2023/03/08 10:39:16;;;;;;;2.72;1.40;;;;;;;;;;4929663;29;20471;-76
2023/03/08 10:41:45;;;;;;;15.30;3.47;;;;;;;;;;4927388;29;20435;-77
2023/03/08 10:44:16;;;;;;;5.03;1.77;;;;;;;;;;4930843;29;20428;-77
2023/03/08 10:46:47;;;;;;;3.40;1.60;;;;;;;;;;4928028;29;20526;-76
2023/03/08 10:49:17;;;;;;;4.00;1.85;;;;;;;;;;4928802;29;20498;-77
2023/03/08 10:51:54;;;;;;;4.55;1.50;;;;;;;;;;4928261;29;20449;-78
2023/03/08 10:54:20;;;;;;;4.05;2.00;;;;;;;;;;4927545;29;20434;-77
2023/03/08 10:56:53;;;;;;;4.00;2.00;;;;;;;;;;4929111;29;20443;-77
2023/03/08 10:59:26;;;;;;;4.32;1.58;;;;;;;;;;4931064;29;20936;-77
2023/03/08 11:01:54;;;;;;;3.45;1.90;;;;;;;;;;4929071;29;20470;-77
2023/03/08 11:04:21;;;;;;;4.20;2.00;;;;;;;;;;4927821;29;20437;-77
2023/03/08 11:06:47;;;;;;;3.65;2.00;;;;;;;;;;4930294;29;20431;-78
2023/03/08 11:09:21;;;;;;;4.97;2.10;;;;;;;;;;4925911;29;21004;-77
2023/03/08 11:11:47;;;;;;;6.20;1.80;;;;;;;;;;4927545;29;20510;-78
2023/03/08 11:14:14;;;;;;;4.10;2.03;;;;;;;;;;4930592;29;21498;-78
2023/03/08 11:16:45;;;;;;;3.75;1.80;;;;;;;;;;4924914;29;20514;-77
2023/03/08 11:19:17;;;;;;;4.93;1.65;;;;;;;;;;4925873;29;20486;-78
2023/03/08 11:21:51;;;;;;;5.32;2.20;;;;;;;;;;4909782;29;20516;-77
2023/03/08 11:24:24;;;;;;;12.02;2.95;;;;;;;;;;4924211;29;20434;-77
2023/03/08 11:26:53;;;;;;;6.30;1.67;;;;;;;;;;4929387;29;21015;-78
2023/03/08 11:29:22;;;;;;;3.15;1.60;;;;;;;;;;4929708;29;20486;-77
2023/03/08 11:31:57;;;;;;;4.47;1.95;;;;;;;;;;4940729;29;20436;-77
2023/03/08 11:34:42;;;;;;;5.82;2.97;;;;;;;;;;4928706;29;21123;-77
2023/03/08 11:37:14;;;;;;;3.40;1.58;;;;;;;;;;4916775;29;20437;-78
2023/03/08 11:39:40;;;;;;;3.97;1.50;;;;;;;;;;4931109;29;20522;-78
2023/03/08 11:42:07;;;;;;;3.80;2.20;;;;;;;;;;4930137;29;20440;-78
2023/03/08 11:44:54;;;;;;;3.35;1.52;;;;;;;;;;4928213;29;20435;-77
2023/03/08 11:47:27;;;;;;;4.80;1.67;;;;;;;;;;4927164;29;20793;-77
2023/03/08 11:50:08;;;;;;;4.18;1.95;;;;;;;;;;4925346;29;20427;-77
2023/03/08 11:52:50;;;;;;;4.18;1.95;;;;;;;;;;4912998;29;20431;-77
2023/03/08 11:55:19;;;;;;;5.03;1.90;;;;;;;;;;4911249;29;20433;-78
2023/03/08 11:57:48;;;;;;;3.83;1.87;;;;;;;;;;4926429;29;20510;-77
2023/03/08 12:00:33;;;;;;;4.88;2.20;;;;;;;;;;4930011;29;20511;-78
2023/03/08 12:03:04;;;;;;;3.58;1.60;;;;;;;;;;4930905;29;20432;-78
2023/03/08 12:05:33;;;;;;;4.95;1.80;;;;;;;;;;4935390;29;20514;-78
2023/03/08 12:08:02;;;;;;;3.08;1.77;;;;;;;;;;4911591;29;20440;-77
2023/03/08 12:10:30;;;;;;;4.82;2.00;;;;;;;;;;4908214;29;20780;-77
2023/03/08 12:13:03;;;;;;;3.97;1.80;;;;;;;;;;4935004;29;20990;-77
2023/03/08 12:15:40;;;;;;;5.22;2.10;;;;;;;;;;4927049;29;20435;-77
2023/03/08 12:18:20;;;;;;;3.50;1.60;;;;;;;;;;4914269;29;20436;-77
2023/03/08 12:20:46;;;;;;;7.13;2.08;;;;;;;;;;4912197;29;20435;-77
2023/03/08 12:23:31;;;;;;;4.13;1.90;;;;;;;;;;4934065;29;20433;-77
2023/03/08 12:26:07;;;;;;;3.70;1.90;;;;;;;;;;4928831;29;20435;-77
2023/03/08 12:28:37;;;;;;;5.93;2.20;;;;;;;;;;4929096;29;21055;-78
2023/03/08 12:31:24;;;;;;;4.05;1.90;;;;;;;;;;4916205;29;20423;-77
2023/03/08 12:33:51;;;;;;;3.63;1.90;;;;;;;;;;4932591;29;20423;-77
2023/03/08 12:36:17;;;;;;;7.30;2.10;;;;;;;;;;4928656;29;20786;-77
2023/03/08 12:38:45;;;;;;;3.75;1.90;;;;;;;;;;4932004;29;20440;-78
2023/03/08 12:41:26;;;;;;;4.65;1.83;;;;;;;;;;4928741;29;20435;-78
2023/03/08 12:44:11;;;;;;;5.10;1.90;;;;;;;;;;4928844;29;20464;-78
2023/03/08 12:46:45;;;;;;;7.07;2.10;;;;;;;;;;4940611;29;20439;-78
2023/03/08 12:49:37;;;;;;;3.55;1.80;;;;;;;;;;4931627;29;20832;-77
2023/03/08 12:52:05;;;;;;;4.57;2.08;;;;;;;;;;4910971;29;20518;-78
2023/03/08 12:54:33;;;;;;;4.23;1.90;;;;;;;;;;4929396;29;20424;-77
2023/03/08 12:57:01;;;;;;;4.75;1.40;;;4.60;99.90;;;;;;4925942;29;20793;-77
2023/03/08 12:59:29;;;;;;;3.83;1.58;;;;;;;;;;4911330;29;20445;-77
2023/03/08 13:01:58;;;;;;;4.57;1.88;;;;;;;;;;4928063;29;20820;-77
2023/03/08 13:04:27;;;;;;;57.10;6.90;;;;;;;;;;4928249;29;21464;-77
2023/03/08 13:07:09;;;;;;;61.07;7.80;;;;;;;;;;4914831;29;20556;-77
2023/03/08 13:09:41;;;;;;;5.22;1.70;;;;;;;;;;4926806;29;20431;-76
2023/03/08 13:12:16;;;;;;;3.03;1.53;;;;;;;;;;4930843;29;20931;-77
2023/03/08 13:14:43;;;;;;;3.72;1.60;;;;;;;;;;4930658;29;20431;-76
2023/03/08 13:17:28;;;;;;;3.75;1.75;;;;;;;;;;4929012;29;20495;-77
2023/03/08 13:19:55;;;;;;;2.47;1.45;;;;;;;;;;4930866;29;20501;-77
2023/03/08 13:22:24;;;;;;;4.05;1.70;;;;;;;;;;4927460;29;20456;-77
2023/03/08 13:24:56;;;;;;;4.03;1.73;;;;;;;;;;4931441;29;20439;-77
2023/03/08 13:27:29;;;;;;;7.00;3.10;;;;;;;;;;4929940;29;20441;-76
2023/03/08 13:29:57;;;;;;;4.15;2.03;;;;;;;;;;4932908;29;20428;-77
2023/03/08 13:32:24;;;;;;;4.10;1.55;;;;;;;;;;4914373;29;20425;-77
2023/03/08 13:35:00;;;;;;;3.28;1.80;;;;;;;;;;4928601;29;20435;-77
2023/03/08 13:37:27;;;;;;;3.55;1.45;;;;;;;;;;4930665;29;21006;-76
2023/03/08 13:39:54;;;;;;;4.38;2.05;;;;;;;;;;4934494;29;20443;-77
2023/03/08 13:42:23;;;;;;;4.43;2.40;;;;;;;;;;4917921;29;20545;-77
2023/03/08 13:44:53;;;;;;;3.80;1.60;;;;;;;;;;4929199;29;20444;-77
2023/03/08 13:47:26;;;;;;;9.80;2.15;;;;;;;;;;4931665;29;20920;-77
2023/03/08 13:49:54;;;;;;;4.57;1.70;;;;;;;;;;4930247;29;20479;-78
2023/03/08 13:52:34;;;;;;;203.88;20.10;;;;;;;;;;4917133;29;20463;-77
2023/03/08 13:55:02;;;;;;;3.50;1.48;;;;;;;;;;4931028;29;20758;-77
2023/03/08 13:57:29;;;;;;;3.50;1.80;;;;;;;;;;4912839;29;20433;-77
2023/03/08 13:59:57;;;;;;;5.15;2.38;;;;;;;;;;4929576;29;20459;-77
2023/03/08 14:02:24;;;;;;;6.10;2.10;;;;;;;;;;4911040;29;20431;-77
2023/03/08 14:04:51;;;;;;;7.70;3.63;;;;;;;;;;4930935;29;20494;-78
2023/03/08 14:07:24;;;;;;;8.77;3.50;;;4.70;99.90;;;;;;4925810;29;20446;-77
2023/03/08 14:09:50;;;;;;;13.60;6.63;;;;;;;;;;4928837;29;20427;-77
2023/03/08 14:12:18;;;;;;;15.25;8.38;;;;;;;;;;4914368;29;20427;-77
2023/03/08 14:14:47;;;;;;;19.25;6.90;;;;;;;;;;4930230;29;20431;-77
2023/03/08 14:17:22;;;;;;;17.48;5.20;;;;;;;;;;4911660;29;21019;-76
2023/03/08 14:19:52;;;;;;;33.08;14.80;;;;;;;;;;4929649;29;20435;-77
2023/03/08 14:22:19;;;;;;;9.18;4.43;;;;;;;;;;4930225;29;20950;-77
2023/03/08 14:24:50;;;;;;;8.45;4.80;;;;;;;;;;4911155;29;20443;-77
2023/03/08 14:27:16;;;;;;;14.60;8.35;;;;;;;;;;4926487;29;20947;-77
2023/03/08 14:29:43;;;;;;;15.63;9.23;;;;;;;;;;4924121;29;20436;-77
2023/03/08 14:32:09;;;;;;;6.70;3.95;;;;;;;;;;4927557;29;20435;-77
2023/03/08 14:34:39;;;;;;;6.70;3.83;;;4.70;99.90;;;;;;4927616;29;20435;-77
2023/03/08 14:37:11;;;;;;;5.78;3.70;;;;;;;;;;4927621;29;20431;-78
2023/03/08 14:39:38;;;;;;;6.60;3.97;;;;;;;;;;4928400;29;21015;-77
2023/03/08 14:42:08;;;;;;;5.17;3.00;;;;;;;;;;4911870;29;20530;-78
2023/03/08 14:44:34;;;;;;;4.38;2.42;;;;;;;;;;4929384;29;20439;-78
2023/03/08 14:47:07;;;;;;;4.97;2.40;;;;;;;;;;4931697;29;20439;-78